createdAt,value
2022-10-22T00:02:14.937Z,17.73
2022-10-22T00:04:41.233Z,17.88
2022-10-22T00:07:08.135Z,17.88
2022-10-22T00:09:34.476Z,17.40
2022-10-22T00:12:00.759Z,16.73
2022-10-22T00:14:27.039Z,16.70
2022-10-22T00:16:53.501Z,17.70
2022-10-22T00:19:19.733Z,17.63
2022-10-22T00:21:46.003Z,16.05
2022-10-22T00:24:12.255Z,16.60
2022-10-22T00:26:38.589Z,16.63
2022-10-22T00:29:04.853Z,17.17
2022-10-22T00:31:31.673Z,16.95
2022-10-22T00:33:57.995Z,16.42
2022-10-22T00:36:24.369Z,16.42
2022-10-22T00:38:50.896Z,18.50
2022-10-22T00:41:17.256Z,17.85
2022-10-22T00:43:43.731Z,15.85
2022-10-22T00:46:10.071Z,17.10
2022-10-22T00:48:36.342Z,16.13
2022-10-22T00:51:02.575Z,16.13
2022-10-22T00:53:28.852Z,15.90
2022-10-22T00:55:55.225Z,16.02
2022-10-22T00:58:21.928Z,15.68
2022-10-22T01:00:48.312Z,15.55
2022-10-22T01:03:16.266Z,16.65
2022-10-22T01:05:42.756Z,16.15
2022-10-22T01:08:09.329Z,15.63
2022-10-22T01:10:35.653Z,16.02
2022-10-22T01:13:02.507Z,15.80
2022-10-22T01:15:28.756Z,16.52
2022-10-22T01:17:55.135Z,15.32
2022-10-22T01:20:21.489Z,15.80
2022-10-22T01:22:47.845Z,15.32
2022-10-22T01:25:14.413Z,14.88
2022-10-22T01:27:40.999Z,15.60
2022-10-22T01:30:07.496Z,16.35
2022-10-22T01:32:33.778Z,14.63
2022-10-22T01:34:59.989Z,14.30
2022-10-22T01:37:26.293Z,15.48
2022-10-22T01:39:52.669Z,14.70
2022-10-22T01:42:19.243Z,15.98
2022-10-22T01:44:45.557Z,14.40
2022-10-22T01:47:11.984Z,15.65
2022-10-22T01:49:38.232Z,15.50
2022-10-22T01:52:04.817Z,15.35
2022-10-22T01:54:31.370Z,13.32
2022-10-22T01:56:57.670Z,15.50
2022-10-22T01:59:23.949Z,13.77
2022-10-22T02:01:50.216Z,14.77
2022-10-22T02:04:16.582Z,14.80
2022-10-22T02:06:42.871Z,15.20
2022-10-22T02:09:09.280Z,14.43
2022-10-22T02:11:35.557Z,14.10
2022-10-22T02:14:01.807Z,14.10
2022-10-22T02:16:28.177Z,14.07
2022-10-22T02:18:54.533Z,13.40
2022-10-22T02:21:20.969Z,14.15
2022-10-22T02:23:47.247Z,14.18
2022-10-22T02:26:13.529Z,13.68
2022-10-22T02:28:40.119Z,14.13
2022-10-22T02:31:06.441Z,13.80
2022-10-22T02:33:32.733Z,13.43
2022-10-22T02:35:59.124Z,13.40
2022-10-22T02:38:25.589Z,13.52
2022-10-22T02:40:52.236Z,13.60
2022-10-22T02:43:18.553Z,13.20
2022-10-22T02:45:44.868Z,12.85
2022-10-22T02:48:11.314Z,13.23
2022-10-22T02:50:37.773Z,12.68
2022-10-22T02:53:04.340Z,13.18
2022-10-22T02:55:30.639Z,13.77
2022-10-22T02:57:56.929Z,13.20
2022-10-22T03:00:23.255Z,12.38
2022-10-22T03:02:49.518Z,13.80
2022-10-22T03:05:15.961Z,13.05
2022-10-22T03:07:42.715Z,11.90
2022-10-22T03:10:09.397Z,13.18
2022-10-22T03:12:35.629Z,12.43
2022-10-22T03:15:01.904Z,13.13
2022-10-22T03:17:28.275Z,12.65
2022-10-22T03:19:54.549Z,14.05
2022-10-22T03:22:21.315Z,13.00
2022-10-22T03:24:47.567Z,12.50
2022-10-22T03:27:13.804Z,12.63
2022-10-22T03:29:40.352Z,11.55
2022-10-22T03:32:06.615Z,12.27
2022-10-22T03:34:33.001Z,12.98
2022-10-22T03:36:59.496Z,12.63
2022-10-22T03:39:25.868Z,11.85
2022-10-22T03:41:52.140Z,12.60
2022-10-22T03:44:18.460Z,12.00
2022-10-22T03:46:44.833Z,12.18
2022-10-22T03:49:11.156Z,11.98
2022-10-22T03:51:37.710Z,12.07
2022-10-22T03:54:03.967Z,13.07
2022-10-22T03:56:30.237Z,12.27
2022-10-22T03:58:56.477Z,11.80
2022-10-22T04:01:22.815Z,12.23
2022-10-22T04:03:49.114Z,12.70
2022-10-22T04:06:15.633Z,11.50
2022-10-22T04:08:41.952Z,11.38
2022-10-22T04:11:08.352Z,12.57
2022-10-22T04:13:34.642Z,11.52
2022-10-22T04:16:00.889Z,11.48
2022-10-22T04:18:27.290Z,11.60
2022-10-22T04:20:53.674Z,10.73
2022-10-22T04:23:19.971Z,11.20
2022-10-22T04:25:46.227Z,11.40
2022-10-22T04:28:12.719Z,11.88
2022-10-22T04:30:38.956Z,12.05
2022-10-22T04:33:05.279Z,11.15
2022-10-22T04:35:31.535Z,11.57
2022-10-22T04:37:57.817Z,10.40
2022-10-22T04:40:24.065Z,11.05
2022-10-22T04:42:50.349Z,10.82
2022-10-22T04:45:16.784Z,12.25
2022-10-22T04:47:43.259Z,12.15
2022-10-22T04:50:09.717Z,10.85
2022-10-22T04:52:36.687Z,11.25
2022-10-22T04:55:03.005Z,11.15
2022-10-22T04:57:29.630Z,10.05
2022-10-22T04:59:56.009Z,10.07
2022-10-22T05:02:22.293Z,10.45
2022-10-22T05:04:48.580Z,10.55
2022-10-22T05:07:15.014Z,10.88
2022-10-22T05:09:41.282Z,10.80
2022-10-22T05:12:08.182Z,10.55
2022-10-22T05:14:34.561Z,9.98
2022-10-22T05:17:00.818Z,10.27
2022-10-22T05:19:27.151Z,10.23
2022-10-22T05:21:53.459Z,10.18
2022-10-22T05:24:19.680Z,10.48
2022-10-22T05:26:45.918Z,9.90
2022-10-22T05:29:12.570Z,10.23
2022-10-22T05:31:38.958Z,10.15
2022-10-22T05:34:05.221Z,10.00
2022-10-22T05:36:31.661Z,10.65
2022-10-22T05:38:58.198Z,9.52
2022-10-22T05:41:24.509Z,9.63
2022-10-22T05:43:50.905Z,10.52
2022-10-22T05:46:21.392Z,9.50
2022-10-22T05:48:48.497Z,10.48
2022-10-22T05:51:14.793Z,9.98
2022-10-22T05:53:41.193Z,10.27
2022-10-22T05:56:07.705Z,9.60
2022-10-22T05:58:34.069Z,9.45
2022-10-22T06:01:00.550Z,9.82
2022-10-22T06:03:26.984Z,9.80
2022-10-22T06:05:53.593Z,9.93
2022-10-22T06:08:20.248Z,9.30
2022-10-22T06:10:46.893Z,9.48
2022-10-22T06:13:13.184Z,10.02
2022-10-22T06:15:39.639Z,9.98
2022-10-22T06:18:05.981Z,9.50
2022-10-22T06:20:32.180Z,9.70
2022-10-22T06:22:58.494Z,9.60
2022-10-22T06:25:25.025Z,10.38
2022-10-22T06:27:51.304Z,9.75
2022-10-22T06:30:17.705Z,8.70
2022-10-22T06:32:44.167Z,8.93
2022-10-22T06:35:10.432Z,9.15
2022-10-22T06:37:36.938Z,9.23
2022-10-22T06:40:03.410Z,9.90
2022-10-22T06:42:29.896Z,9.50
2022-10-22T06:44:56.398Z,9.20
2022-10-22T06:47:22.709Z,8.95
2022-10-22T06:49:49.000Z,9.27
2022-10-22T06:52:15.356Z,9.02
2022-10-22T06:54:41.677Z,8.73
2022-10-22T06:57:07.924Z,9.65
2022-10-22T06:59:34.570Z,9.00
2022-10-22T07:02:00.806Z,9.18
2022-10-22T07:04:27.618Z,9.18
2022-10-22T07:06:54.044Z,8.93
2022-10-22T07:09:20.361Z,8.90
2022-10-22T07:11:46.685Z,9.30
2022-10-22T07:14:13.229Z,9.15
2022-10-22T07:16:39.608Z,9.18
2022-10-22T07:19:05.908Z,8.68
2022-10-22T07:21:32.319Z,9.80
2022-10-22T07:23:58.583Z,8.40
2022-10-22T07:26:25.120Z,8.65
2022-10-22T07:28:51.433Z,8.65
2022-10-22T07:31:17.701Z,8.43
2022-10-22T07:33:43.920Z,9.20
2022-10-22T07:36:10.324Z,9.02
2022-10-22T07:38:36.565Z,8.85
2022-10-22T07:41:02.890Z,8.25
2022-10-22T07:43:29.455Z,9.07
2022-10-22T07:45:55.785Z,9.10
2022-10-22T07:48:22.035Z,8.40
2022-10-22T07:50:48.374Z,8.98
2022-10-22T07:53:14.652Z,8.65
2022-10-22T07:55:40.961Z,9.27
2022-10-22T07:58:07.218Z,8.65
2022-10-22T08:00:33.548Z,9.02
2022-10-22T08:02:59.832Z,8.25
2022-10-22T08:05:26.072Z,9.57
2022-10-22T08:07:52.554Z,8.88
2022-10-22T08:10:18.854Z,9.18
2022-10-22T08:12:45.549Z,9.13
2022-10-22T08:15:11.908Z,8.75
2022-10-22T08:17:38.776Z,9.10
2022-10-22T08:20:05.305Z,8.82
2022-10-22T08:22:31.595Z,8.57
2022-10-22T08:24:57.962Z,8.80
2022-10-22T08:27:24.212Z,8.50
2022-10-22T08:29:50.642Z,8.18
2022-10-22T08:32:17.024Z,8.23
2022-10-22T08:34:43.402Z,8.30
2022-10-22T08:37:09.760Z,8.20
2022-10-22T08:39:36.179Z,10.65
2022-10-22T08:42:02.422Z,10.57
2022-10-22T08:44:28.707Z,9.65
2022-10-22T08:46:54.973Z,10.05
2022-10-22T08:49:21.399Z,9.73
2022-10-22T08:51:47.860Z,9.85
2022-10-22T08:54:14.276Z,10.23
2022-10-22T08:56:40.685Z,9.27
2022-10-22T08:59:07.238Z,9.93
2022-10-22T09:01:33.666Z,10.80
2022-10-22T09:03:59.994Z,10.10
2022-10-22T09:06:26.418Z,10.50
2022-10-22T09:08:52.810Z,9.90
2022-10-22T09:11:19.137Z,10.00
2022-10-22T09:13:45.583Z,9.70
2022-10-22T09:16:12.004Z,9.95
2022-10-22T09:18:38.499Z,10.32
2022-10-22T09:21:04.967Z,9.73
2022-10-22T09:23:31.352Z,10.32
2022-10-22T09:25:57.580Z,10.02
2022-10-22T09:28:23.946Z,9.88
2022-10-22T09:30:50.251Z,9.88
2022-10-22T09:33:18.203Z,10.35
2022-10-22T09:35:46.695Z,10.38
2022-10-22T09:38:13.365Z,10.50
2022-10-22T09:40:39.625Z,10.10
2022-10-22T09:43:05.897Z,10.40
2022-10-22T09:45:32.113Z,9.98
2022-10-22T09:48:01.993Z,10.85
2022-10-22T09:50:28.952Z,10.10
2022-10-22T09:52:55.404Z,10.45
2022-10-22T09:55:21.775Z,10.57
2022-10-22T09:57:48.702Z,11.20
2022-10-22T10:00:15.112Z,10.38
2022-10-22T10:02:41.929Z,10.10
2022-10-22T10:05:08.353Z,10.63
2022-10-22T10:07:34.747Z,10.88
2022-10-22T10:10:01.033Z,10.18
2022-10-22T10:12:27.446Z,10.15
2022-10-22T10:14:53.776Z,10.05
2022-10-22T10:17:20.057Z,10.63
2022-10-22T10:19:46.436Z,10.38
2022-10-22T10:22:12.739Z,10.18
2022-10-22T10:24:39.196Z,11.18
2022-10-22T10:27:05.623Z,11.63
2022-10-22T10:29:32.062Z,10.90
2022-10-22T10:31:58.920Z,11.70
2022-10-22T10:34:25.268Z,27.98
2022-10-22T10:36:51.647Z,59.53
2022-10-22T10:39:17.883Z,137.20
2022-10-22T10:41:44.261Z,128.43
2022-10-22T10:44:10.669Z,129.23
2022-10-22T10:46:37.306Z,134.30
2022-10-22T10:49:03.747Z,132.45
2022-10-22T10:51:30.592Z,119.82
2022-10-22T10:53:57.200Z,109.72
2022-10-22T10:56:23.568Z,103.13
2022-10-22T10:58:50.234Z,200.07
2022-10-22T11:01:16.468Z,281.88
2022-10-22T11:03:42.802Z,237.90
2022-10-22T11:06:09.202Z,220.10
2022-10-22T11:08:36.073Z,203.27
2022-10-22T11:11:02.625Z,191.07
2022-10-22T11:13:28.936Z,265.20
2022-10-22T11:15:55.295Z,307.83
2022-10-22T11:18:21.989Z,323.75
2022-10-22T11:20:48.430Z,296.27
2022-10-22T11:23:19.882Z,278.38
2022-10-22T11:25:47.315Z,260.35
2022-10-22T11:30:45.302Z,244.27
2022-10-22T11:33:11.753Z,229.95
2022-10-22T11:35:38.362Z,203.38
2022-10-22T11:38:04.660Z,213.32
2022-10-22T11:40:30.971Z,231.15
2022-10-22T11:42:57.261Z,251.38
2022-10-22T11:45:23.579Z,244.23
2022-10-22T11:47:50.227Z,221.43
2022-10-22T11:50:16.446Z,214.57
2022-10-22T11:52:43.085Z,198.93
2022-10-22T11:55:09.426Z,196.00
2022-10-22T11:57:37.129Z,171.68
2022-10-22T12:00:03.986Z,170.80
2022-10-22T12:02:30.486Z,162.65
2022-10-22T12:04:56.805Z,158.48
2022-10-22T12:07:23.057Z,150.45
2022-10-22T12:09:49.492Z,148.45
2022-10-22T12:12:15.920Z,146.70
2022-10-22T12:14:42.203Z,144.32
2022-10-22T12:17:08.621Z,144.88
2022-10-22T12:19:34.900Z,136.32
2022-10-22T12:22:01.170Z,138.38
2022-10-22T12:24:27.506Z,135.32
2022-10-22T12:26:53.856Z,125.10
2022-10-22T12:29:20.242Z,128.02
2022-10-22T12:31:46.555Z,126.95
2022-10-22T12:34:13.185Z,127.28
2022-10-22T12:36:39.604Z,163.80
2022-10-22T12:39:05.799Z,189.15
2022-10-22T12:41:32.067Z,187.75
2022-10-22T12:43:58.369Z,145.45
2022-10-22T12:46:24.866Z,134.20
2022-10-22T12:48:51.185Z,133.43
2022-10-22T12:51:17.524Z,132.32
2022-10-22T12:53:44.478Z,134.80
2022-10-22T12:56:11.093Z,127.78
2022-10-22T12:58:37.372Z,125.53
2022-10-22T13:01:03.765Z,126.45
2022-10-22T13:03:30.222Z,122.22
2022-10-22T13:05:56.446Z,123.03
2022-10-22T13:08:22.837Z,121.93
2022-10-22T13:10:49.367Z,115.32
2022-10-22T13:13:16.492Z,116.35
2022-10-22T13:15:42.950Z,113.40
2022-10-22T13:18:09.309Z,113.80
2022-10-22T13:20:36.029Z,111.65
2022-10-22T13:23:02.351Z,117.78
2022-10-22T13:25:28.926Z,141.27
2022-10-22T13:27:55.346Z,149.75
2022-10-22T13:30:21.603Z,147.10
2022-10-22T13:32:47.828Z,144.20
2022-10-22T13:35:14.209Z,144.98
2022-10-22T13:37:40.920Z,146.75
2022-10-22T13:40:10.915Z,143.02
2022-10-22T13:42:37.552Z,143.82
2022-10-22T13:45:03.863Z,137.73
2022-10-22T13:47:30.172Z,135.30
2022-10-22T13:52:28.056Z,135.05
2022-10-22T13:54:54.293Z,166.00
2022-10-22T13:57:20.606Z,300.60
2022-10-22T13:59:47.027Z,311.77
2022-10-22T14:02:13.515Z,295.83
2022-10-22T14:04:39.932Z,287.77
2022-10-22T14:07:06.288Z,282.70
2022-10-22T14:09:32.569Z,274.20
2022-10-22T14:11:58.849Z,269.42
2022-10-22T14:14:25.205Z,261.55
2022-10-22T14:16:51.597Z,255.98
2022-10-22T14:19:17.924Z,249.38
2022-10-22T14:21:44.161Z,240.48
2022-10-22T14:24:13.014Z,229.32
2022-10-22T14:26:40.279Z,218.43
2022-10-22T14:29:10.984Z,205.65
2022-10-22T14:34:07.335Z,185.48
2022-10-22T14:36:33.786Z,178.52
2022-10-22T14:39:00.327Z,251.85
2022-10-22T14:41:26.633Z,302.10
2022-10-22T14:43:53.114Z,296.88
2022-10-22T14:46:19.705Z,277.60
2022-10-22T14:48:46.266Z,252.68
2022-10-22T14:51:12.825Z,207.05
2022-10-22T14:53:39.170Z,170.70
2022-10-22T14:56:05.575Z,155.35
2022-10-22T14:58:31.787Z,146.10
2022-10-22T15:00:58.227Z,131.77
2022-10-22T15:03:24.575Z,125.38
2022-10-22T15:05:50.985Z,121.05
2022-10-22T15:08:17.328Z,118.82
2022-10-22T15:10:43.805Z,118.03
2022-10-22T15:13:11.080Z,118.72
2022-10-22T15:15:39.840Z,114.90
2022-10-22T15:18:06.565Z,164.10
2022-10-22T15:20:32.846Z,176.38
2022-10-22T15:22:59.656Z,163.73
2022-10-22T15:25:26.759Z,167.75
2022-10-22T15:27:54.915Z,168.70
2022-10-22T15:30:25.867Z,149.68
2022-10-22T15:32:52.169Z,137.88
2022-10-22T15:35:18.502Z,134.40
2022-10-22T15:37:44.801Z,124.05
2022-10-22T15:40:11.070Z,119.82
2022-10-22T15:42:37.424Z,144.32
2022-10-22T15:45:03.930Z,160.15
2022-10-22T15:47:30.330Z,146.27
2022-10-22T15:49:56.927Z,134.35
2022-10-22T15:52:23.330Z,112.95
2022-10-22T15:54:49.833Z,98.75
2022-10-22T15:57:16.300Z,99.97
2022-10-22T15:59:42.601Z,109.47
2022-10-22T16:02:08.961Z,99.85
2022-10-22T16:04:35.790Z,91.55
2022-10-22T16:07:02.040Z,84.55
2022-10-22T16:09:29.500Z,74.18
2022-10-22T16:11:56.183Z,69.07
2022-10-22T16:14:22.648Z,63.20
2022-10-22T16:16:48.926Z,61.88
2022-10-22T16:19:15.213Z,57.30
2022-10-22T16:21:41.800Z,54.08
2022-10-22T16:24:08.505Z,50.15
2022-10-22T16:26:34.926Z,47.85
2022-10-22T16:29:01.286Z,48.08
2022-10-22T16:31:27.755Z,77.03
2022-10-22T16:33:54.652Z,112.88
2022-10-22T16:36:21.034Z,132.80
2022-10-22T16:38:47.468Z,117.75
2022-10-22T16:41:13.847Z,100.40
2022-10-22T16:43:40.243Z,86.05
2022-10-22T16:46:06.493Z,82.45
2022-10-22T16:48:33.022Z,77.13
2022-10-22T16:50:59.400Z,67.03
2022-10-22T16:53:25.853Z,60.67
2022-10-22T16:55:52.180Z,54.92
2022-10-22T16:58:18.913Z,52.08
2022-10-22T17:00:45.331Z,46.42
2022-10-22T17:03:11.976Z,41.88
2022-10-22T17:05:38.251Z,85.78
2022-10-22T17:08:04.567Z,124.50
2022-10-22T17:10:30.900Z,133.88
2022-10-22T17:12:57.957Z,111.30
2022-10-22T17:15:24.208Z,96.43
2022-10-22T17:17:50.529Z,83.38
2022-10-22T17:20:16.821Z,83.20
2022-10-22T17:22:43.315Z,71.45
2022-10-22T17:25:09.825Z,64.28
2022-10-22T17:27:36.131Z,55.13
2022-10-22T17:30:02.571Z,52.72
2022-10-22T17:32:29.092Z,53.92
2022-10-22T17:34:55.909Z,53.33
2022-10-22T17:37:22.200Z,43.85
2022-10-22T17:39:48.593Z,41.15
2022-10-22T17:42:14.954Z,54.05
2022-10-22T17:44:41.484Z,111.18
2022-10-22T17:47:08.010Z,152.77
2022-10-22T17:49:34.564Z,189.18
2022-10-22T17:54:32.438Z,184.13
2022-10-22T17:56:58.883Z,195.98
2022-10-22T17:59:25.268Z,258.85
2022-10-22T18:01:51.523Z,317.80
2022-10-22T18:04:17.887Z,328.17
2022-10-22T18:06:44.501Z,324.27
2022-10-22T18:09:12.396Z,315.88
2022-10-22T18:11:41.039Z,303.30
2022-10-22T18:14:07.605Z,298.88
2022-10-22T18:16:33.958Z,319.77
2022-10-22T18:19:00.285Z,333.88
2022-10-22T18:21:26.813Z,356.67
2022-10-22T18:23:53.328Z,365.42
2022-10-22T18:26:22.789Z,360.83
2022-10-22T18:28:52.516Z,356.70
2022-10-22T18:31:18.855Z,352.30
2022-10-22T18:33:45.167Z,352.08
2022-10-22T18:36:11.735Z,351.88
2022-10-22T18:38:38.104Z,343.00
2022-10-22T18:41:04.551Z,332.38
2022-10-22T18:43:30.871Z,330.52
2022-10-22T18:45:57.214Z,325.60
2022-10-22T18:48:23.509Z,318.92
2022-10-22T18:50:51.214Z,315.58
2022-10-22T18:53:19.330Z,305.10
2022-10-22T18:55:45.592Z,293.38
2022-10-22T18:58:11.881Z,279.98
2022-10-22T19:00:38.223Z,274.55
2022-10-22T19:03:04.562Z,271.88
2022-10-22T19:05:30.894Z,265.55
2022-10-22T19:07:57.165Z,263.23
2022-10-22T19:10:24.517Z,266.23
2022-10-22T19:12:50.831Z,256.55
2022-10-22T19:15:17.151Z,254.25
2022-10-22T19:17:43.935Z,269.77
2022-10-22T19:20:10.712Z,344.80
2022-10-22T19:22:36.972Z,414.40
2022-10-22T19:25:05.926Z,378.95
2022-10-22T19:27:34.678Z,367.02
2022-10-22T19:30:01.050Z,353.08
2022-10-22T19:32:30.210Z,341.73
2022-10-22T19:34:57.821Z,334.17
2022-10-22T19:37:24.200Z,330.58
2022-10-22T19:39:50.520Z,323.70
2022-10-22T19:42:16.853Z,317.38
2022-10-22T19:44:43.241Z,310.85
2022-10-22T19:47:09.625Z,309.17
2022-10-22T19:49:35.937Z,301.65
2022-10-22T19:52:02.296Z,298.73
2022-10-22T19:54:28.776Z,299.98
2022-10-22T19:56:55.258Z,296.27
2022-10-22T19:59:21.581Z,282.65
2022-10-22T20:01:47.863Z,285.92
2022-10-22T20:04:14.088Z,317.13
2022-10-22T20:06:40.718Z,340.45
2022-10-22T20:09:07.269Z,352.65
2022-10-22T20:11:33.568Z,359.10
2022-10-22T20:14:00.154Z,369.92
2022-10-22T20:16:26.574Z,372.95
2022-10-22T20:18:52.936Z,372.85
2022-10-22T20:21:19.234Z,369.20
2022-10-22T20:23:45.572Z,358.33
2022-10-22T20:26:11.853Z,399.27
2022-10-22T20:28:38.383Z,418.75
2022-10-22T20:31:05.177Z,424.10
2022-10-22T20:33:31.458Z,420.42
2022-10-22T20:35:57.730Z,420.27
2022-10-22T20:38:24.190Z,456.50
2022-10-22T20:40:50.515Z,475.25
2022-10-22T20:43:17.090Z,479.30
2022-10-22T20:45:43.410Z,488.67
2022-10-22T20:48:10.114Z,481.95
2022-10-22T20:50:36.669Z,486.38
2022-10-22T20:53:03.044Z,473.17
2022-10-22T20:55:29.422Z,480.75
2022-10-22T20:57:55.705Z,454.08
2022-10-22T21:00:22.024Z,435.20
2022-10-22T21:05:28.449Z,529.92
2022-10-22T21:07:54.755Z,518.35
2022-10-22T21:10:21.126Z,517.95
2022-10-22T21:15:23.457Z,520.00
2022-10-22T21:17:49.819Z,512.45
2022-10-22T21:20:17.862Z,502.25
2022-10-22T21:22:46.169Z,503.73
2022-10-22T21:25:13.338Z,503.73
2022-10-22T21:27:39.785Z,494.88
2022-10-22T21:30:06.005Z,569.85
2022-10-22T21:32:32.501Z,609.78
2022-10-22T21:34:58.823Z,595.42
2022-10-22T21:37:25.446Z,583.60
2022-10-22T21:39:51.722Z,576.47
2022-10-22T21:42:18.119Z,567.15
2022-10-22T21:44:44.529Z,559.72
2022-10-22T21:47:10.831Z,564.55
2022-10-22T21:49:37.380Z,560.38
2022-10-22T21:52:03.800Z,573.67
2022-10-22T21:54:30.245Z,574.15
2022-10-22T21:56:56.773Z,568.83
2022-10-22T21:59:23.374Z,565.15
2022-10-22T22:01:49.667Z,571.35
2022-10-22T22:04:16.340Z,566.13
2022-10-22T22:06:42.685Z,561.63
2022-10-22T22:09:09.066Z,569.85
2022-10-22T22:11:35.444Z,564.35
2022-10-22T22:14:01.898Z,562.15
2022-10-22T22:16:29.714Z,554.42
2022-10-22T22:18:56.107Z,561.13
2022-10-22T22:21:22.469Z,549.97
2022-10-22T22:23:48.728Z,550.80
2022-10-22T22:26:15.120Z,542.75
2022-10-22T22:28:41.582Z,539.20
2022-10-22T22:31:07.900Z,538.47
2022-10-22T22:33:34.386Z,535.17
2022-10-22T22:36:00.876Z,521.90
2022-10-22T22:38:27.227Z,531.35
2022-10-22T22:40:53.585Z,519.70
2022-10-22T22:43:19.973Z,516.65
2022-10-22T22:45:46.785Z,518.40
2022-10-22T22:48:13.153Z,515.60
2022-10-22T22:50:39.482Z,505.75
2022-10-22T22:53:05.936Z,499.38
2022-10-22T22:55:32.220Z,503.60
2022-10-22T22:57:58.539Z,496.27
2022-10-22T23:00:25.019Z,497.48
2022-10-22T23:02:51.305Z,491.45
2022-10-22T23:05:17.983Z,495.48
2022-10-22T23:07:44.236Z,482.42
2022-10-22T23:10:10.601Z,473.45
2022-10-22T23:12:37.042Z,484.80
2022-10-22T23:15:03.516Z,478.77
2022-10-22T23:17:30.082Z,478.25
2022-10-22T23:19:56.408Z,470.13
2022-10-22T23:22:22.834Z,469.65
2022-10-22T23:24:49.178Z,465.20
2022-10-22T23:27:15.869Z,464.70
2022-10-22T23:29:42.207Z,455.98
2022-10-22T23:32:08.716Z,452.73
2022-10-22T23:34:35.072Z,454.10
2022-10-22T23:37:01.367Z,448.73
2022-10-22T23:39:27.815Z,443.52
2022-10-22T23:41:54.245Z,439.65
2022-10-22T23:44:20.637Z,432.20
2022-10-22T23:46:47.050Z,433.20
2022-10-22T23:49:13.474Z,432.48
2022-10-22T23:51:39.702Z,439.13
2022-10-22T23:54:06.049Z,427.75
2022-10-22T23:56:32.416Z,418.50
2022-10-22T23:58:58.841Z,422.42
